createdAt,value
2023-04-18T00:02:26.479Z,3.20
2023-04-18T00:04:54.928Z,3.20
2023-04-18T00:07:23.177Z,3.20
2023-04-18T00:09:51.367Z,3.20
2023-04-18T00:12:20.999Z,3.20
2023-04-18T00:14:50.648Z,3.20
2023-04-18T00:17:18.804Z,3.10
2023-04-18T00:19:47.189Z,3.20
2023-04-18T00:22:16.922Z,3.10
2023-04-18T00:24:45.063Z,3.10
2023-04-18T00:27:13.170Z,3.10
2023-04-18T00:29:42.896Z,3.10
2023-04-18T00:32:11.184Z,3.10
2023-04-18T00:34:40.564Z,3.10
2023-04-18T00:37:09.017Z,3.10
2023-04-18T00:39:37.499Z,3.10
2023-04-18T00:42:05.855Z,3.00
2023-04-18T00:44:34.097Z,3.00
2023-04-18T00:47:03.734Z,3.00
2023-04-18T00:49:34.759Z,3.00
2023-04-18T00:52:03.166Z,3.00
2023-04-18T00:54:31.551Z,3.00
2023-04-18T00:56:59.667Z,3.00
2023-04-18T00:59:27.825Z,3.00
2023-04-18T01:01:56.077Z,3.00
2023-04-18T01:04:25.676Z,3.10
2023-04-18T01:06:54.681Z,3.10
2023-04-18T01:09:23.531Z,3.10
2023-04-18T01:11:51.901Z,3.00
2023-04-18T01:14:20.564Z,3.10
2023-04-18T01:16:48.721Z,3.10
2023-04-18T01:19:17.108Z,3.00
2023-04-18T01:21:49.216Z,3.00
2023-04-18T01:24:18.967Z,3.00
2023-04-18T01:26:48.575Z,3.00
2023-04-18T01:29:16.700Z,3.00
2023-04-18T01:31:44.917Z,3.00
2023-04-18T01:34:13.434Z,2.90
2023-04-18T01:36:41.883Z,3.00
2023-04-18T01:39:10.579Z,2.90
2023-04-18T01:41:40.342Z,2.90
2023-04-18T01:44:08.578Z,3.00
2023-04-18T01:46:36.899Z,3.00
2023-04-18T01:49:06.445Z,2.90
2023-04-18T01:51:34.775Z,2.90
2023-04-18T01:54:02.859Z,3.00
2023-04-18T01:56:31.085Z,2.90
2023-04-18T01:59:00.706Z,2.90
2023-04-18T02:01:28.989Z,2.90
2023-04-18T02:03:57.290Z,2.90
2023-04-18T02:06:31.225Z,2.80
2023-04-18T02:08:59.391Z,2.80
2023-04-18T02:11:27.693Z,2.80
2023-04-18T02:13:56.043Z,2.80
2023-04-18T02:16:28.413Z,2.90
2023-04-18T02:18:56.637Z,2.80
2023-04-18T02:21:24.901Z,2.80
2023-04-18T02:23:55.724Z,2.90
2023-04-18T02:26:23.810Z,2.80
2023-04-18T02:28:51.970Z,2.80
2023-04-18T02:31:20.401Z,2.90
2023-04-18T02:33:50.095Z,2.90
2023-04-18T02:36:18.303Z,2.90
2023-04-18T02:38:46.591Z,2.80
2023-04-18T02:41:17.579Z,2.80
2023-04-18T02:43:45.999Z,2.80
2023-04-18T02:46:14.169Z,2.80
2023-04-18T02:48:42.651Z,2.80
2023-04-18T02:51:12.301Z,2.80
2023-04-18T02:53:49.695Z,2.80
2023-04-18T02:56:18.968Z,2.80
2023-04-18T02:58:47.216Z,2.70
2023-04-18T03:01:15.406Z,2.70
2023-04-18T03:03:43.479Z,2.60
2023-04-18T03:06:13.207Z,2.70
2023-04-18T03:08:41.867Z,2.60
2023-04-18T03:11:10.009Z,2.60
2023-04-18T03:13:41.059Z,2.60
2023-04-18T03:16:09.376Z,2.60
2023-04-18T03:18:37.641Z,2.60
2023-04-18T03:21:07.332Z,2.60
2023-04-18T03:23:37.045Z,2.70
2023-04-18T03:26:08.295Z,2.70
2023-04-18T03:28:36.582Z,2.60
2023-04-18T03:31:04.907Z,2.60
2023-04-18T03:33:33.056Z,2.60
2023-04-18T03:36:01.324Z,2.70
2023-04-18T03:38:30.587Z,2.70
2023-04-18T03:41:00.555Z,2.80
2023-04-18T03:43:28.704Z,2.80
2023-04-18T03:45:57.094Z,2.70
2023-04-18T03:48:25.303Z,2.70
2023-04-18T03:50:53.423Z,2.80
2023-04-18T03:53:21.746Z,2.70
2023-04-18T03:55:52.096Z,2.60
2023-04-18T03:58:23.885Z,2.70
2023-04-18T04:00:52.062Z,2.80
2023-04-18T04:03:20.756Z,2.80
2023-04-18T04:05:49.239Z,2.90
2023-04-18T04:08:17.657Z,2.90
2023-04-18T04:10:45.788Z,2.90
2023-04-18T04:13:13.883Z,3.10
2023-04-18T04:15:43.563Z,3.00
2023-04-18T04:18:11.872Z,2.90
2023-04-18T04:20:40.043Z,3.00
2023-04-18T04:23:08.360Z,3.10
2023-04-18T04:25:36.777Z,3.10
2023-04-18T04:28:08.270Z,3.10
2023-04-18T04:30:38.349Z,3.10
2023-04-18T04:33:09.146Z,3.30
2023-04-18T04:35:37.828Z,3.30
2023-04-18T04:38:06.198Z,3.30
2023-04-18T04:40:34.394Z,3.40
2023-04-18T04:43:02.672Z,3.50
2023-04-18T04:45:31.265Z,3.60
2023-04-18T04:47:59.544Z,3.70
2023-04-18T04:50:29.151Z,3.80
2023-04-18T04:52:57.329Z,3.90
2023-04-18T04:55:25.757Z,3.90
2023-04-18T04:57:53.881Z,4.00
2023-04-18T05:00:22.240Z,4.20
2023-04-18T05:02:50.788Z,4.20
2023-04-18T05:05:19.124Z,4.40
2023-04-18T05:07:48.635Z,4.40
2023-04-18T05:10:16.844Z,4.40
2023-04-18T05:12:45.018Z,4.50
2023-04-18T05:15:13.371Z,4.60
2023-04-18T05:17:41.724Z,4.70
2023-04-18T05:20:10.322Z,4.80
2023-04-18T05:22:41.246Z,4.70
2023-04-18T05:25:12.458Z,5.00
2023-04-18T05:27:40.963Z,5.00
2023-04-18T05:30:09.697Z,5.10
2023-04-18T05:32:39.132Z,5.20
2023-04-18T05:35:07.658Z,5.10
2023-04-18T05:37:35.848Z,5.20
2023-04-18T05:40:05.212Z,5.40
2023-04-18T05:42:34.741Z,5.40
2023-04-18T05:45:03.030Z,5.60
2023-04-18T05:47:31.246Z,5.40
2023-04-18T05:49:59.395Z,5.60
2023-04-18T05:52:27.716Z,5.80
2023-04-18T05:54:55.860Z,5.90
2023-04-18T05:57:24.034Z,5.80
2023-04-18T05:59:53.798Z,5.90
2023-04-18T06:02:22.445Z,6.00
2023-04-18T06:04:51.710Z,6.10
2023-04-18T06:07:21.509Z,6.00
2023-04-18T06:09:49.961Z,6.20
2023-04-18T06:12:18.119Z,6.20
2023-04-18T06:14:48.760Z,6.30
2023-04-18T06:17:18.465Z,6.20
2023-04-18T06:19:46.567Z,6.30
2023-04-18T06:22:14.679Z,6.40
2023-04-18T06:24:42.858Z,6.70
2023-04-18T06:27:20.727Z,6.90
2023-04-18T06:29:58.499Z,7.10
2023-04-18T06:32:28.171Z,6.80
2023-04-18T06:34:56.573Z,6.80
2023-04-18T06:37:24.985Z,6.90
2023-04-18T06:39:53.186Z,6.70
2023-04-18T06:42:22.616Z,7.00
2023-04-18T06:44:51.234Z,7.10
2023-04-18T06:47:19.340Z,7.10
2023-04-18T06:49:49.280Z,6.80
2023-04-18T06:52:17.485Z,6.90
2023-04-18T06:54:45.783Z,6.50
2023-04-18T06:57:14.216Z,6.80
2023-04-18T06:59:42.731Z,6.60
2023-04-18T07:02:11.021Z,6.70
2023-04-18T07:04:39.344Z,6.70
2023-04-18T07:07:09.119Z,6.90
2023-04-18T07:09:37.241Z,7.10
2023-04-18T07:12:05.628Z,7.00
2023-04-18T07:14:34.290Z,6.90
2023-04-18T07:17:02.999Z,6.80
2023-04-18T07:19:31.233Z,7.00
2023-04-18T07:21:59.438Z,6.80
2023-04-18T07:24:29.220Z,6.70
2023-04-18T07:26:58.188Z,6.90
2023-04-18T07:29:26.490Z,7.10
2023-04-18T07:31:54.648Z,6.80
2023-04-18T07:34:26.430Z,7.00
2023-04-18T07:36:54.641Z,7.20
2023-04-18T07:39:22.918Z,7.10
2023-04-18T07:41:52.671Z,7.10
2023-04-18T07:44:21.651Z,7.20
2023-04-18T07:46:49.898Z,7.30
2023-04-18T07:49:18.030Z,7.40
2023-04-18T07:51:46.173Z,7.50
2023-04-18T07:54:14.255Z,7.50
2023-04-18T07:56:42.455Z,7.50
2023-04-18T07:59:12.930Z,7.60
2023-04-18T08:01:41.674Z,7.30
2023-04-18T08:04:10.157Z,7.60
2023-04-18T08:06:38.411Z,7.60
2023-04-18T08:09:09.254Z,7.70
2023-04-18T08:11:39.053Z,7.50
2023-04-18T08:14:07.426Z,7.40
2023-04-18T08:16:36.984Z,7.70
2023-04-18T08:19:05.181Z,7.40
2023-04-18T08:21:33.341Z,7.50
2023-04-18T08:24:01.573Z,7.70
2023-04-18T08:26:29.728Z,7.80
2023-04-18T08:28:58.094Z,7.60
2023-04-18T08:31:26.513Z,8.00
2023-04-18T08:33:56.359Z,7.90
2023-04-18T08:36:25.087Z,7.80
2023-04-18T08:38:55.120Z,7.50
2023-04-18T08:41:24.368Z,7.80
2023-04-18T08:43:53.443Z,7.80
2023-04-18T08:46:22.955Z,7.50
2023-04-18T08:48:51.499Z,8.10
2023-04-18T08:51:21.705Z,8.00
2023-04-18T08:53:50.827Z,8.20
2023-04-18T08:56:22.502Z,8.10
2023-04-18T08:58:50.945Z,8.20
2023-04-18T09:01:19.184Z,8.30
2023-04-18T09:03:47.544Z,8.40
2023-04-18T09:06:16.516Z,8.30
2023-04-18T09:08:56.531Z,8.50
2023-04-18T09:11:26.162Z,7.80
2023-04-18T09:13:56.482Z,7.80
2023-04-18T09:16:25.012Z,7.30
2023-04-18T09:19:09.861Z,7.60
2023-04-18T09:21:39.771Z,7.70
2023-04-18T09:24:17.662Z,7.70
2023-04-18T09:26:46.023Z,7.10
2023-04-18T09:29:14.698Z,6.90
2023-04-18T09:31:54.649Z,6.70
2023-04-18T09:34:25.246Z,6.40
2023-04-18T09:37:09.377Z,7.20
2023-04-18T09:39:40.496Z,7.30
2023-04-18T09:42:10.571Z,7.40
2023-04-18T09:44:38.939Z,7.50
2023-04-18T09:47:07.432Z,8.00
2023-04-18T09:49:35.985Z,8.00
2023-04-18T09:52:07.585Z,7.20
2023-04-18T09:54:37.778Z,7.10
2023-04-18T09:57:10.098Z,6.60
2023-04-18T09:59:42.895Z,7.10
2023-04-18T10:02:16.657Z,7.40
2023-04-18T10:04:45.066Z,6.90
2023-04-18T10:07:13.483Z,6.60
2023-04-18T10:09:44.704Z,7.30
2023-04-18T10:12:14.571Z,6.90
2023-04-18T10:14:44.245Z,6.80
2023-04-18T10:17:12.526Z,7.10
2023-04-18T10:19:42.144Z,6.80
2023-04-18T10:22:10.490Z,7.00
2023-04-18T10:24:48.245Z,7.10
2023-04-18T10:27:18.903Z,7.10
2023-04-18T10:29:50.750Z,7.40
2023-04-18T10:32:19.974Z,7.90
2023-04-18T10:34:48.432Z,7.70
2023-04-18T10:37:19.796Z,8.10
2023-04-18T10:39:58.443Z,8.50
2023-04-18T10:42:47.708Z,8.50
2023-04-18T10:45:21.208Z,8.00
2023-04-18T10:47:49.960Z,8.30
2023-04-18T10:50:18.444Z,7.90
2023-04-18T10:52:46.638Z,7.50
2023-04-18T10:55:17.758Z,8.00
2023-04-18T10:57:46.421Z,8.10
2023-04-18T11:00:15.433Z,8.40
2023-04-18T11:02:51.660Z,8.10
2023-04-18T11:05:21.047Z,7.30
2023-04-18T11:07:49.832Z,7.50
2023-04-18T11:10:18.687Z,8.10
2023-04-18T11:12:47.160Z,8.00
2023-04-18T11:15:17.765Z,8.40
2023-04-18T11:17:45.995Z,7.80
2023-04-18T11:20:15.797Z,7.80
2023-04-18T11:22:47.898Z,8.20
2023-04-18T11:25:16.463Z,8.20
2023-04-18T11:27:45.337Z,8.10
2023-04-18T11:30:14.192Z,8.10
2023-04-18T11:32:42.595Z,8.20
2023-04-18T11:35:11.583Z,7.40
2023-04-18T11:37:42.202Z,7.80
2023-04-18T11:40:10.919Z,8.90
2023-04-18T11:42:40.164Z,9.00
2023-04-18T11:45:10.916Z,9.00
2023-04-18T11:47:39.239Z,9.40
2023-04-18T11:50:08.529Z,9.60
2023-04-18T11:52:37.161Z,9.20
2023-04-18T11:55:14.681Z,9.10
2023-04-18T11:57:43.041Z,9.10
2023-04-18T12:00:12.711Z,9.90
2023-04-18T12:02:41.925Z,10.00
2023-04-18T12:05:10.684Z,9.80
2023-04-18T12:07:40.170Z,10.20
2023-04-18T12:10:09.504Z,10.00
2023-04-18T12:12:39.204Z,9.80
2023-04-18T12:15:09.260Z,8.90
2023-04-18T12:17:38.388Z,8.30
2023-04-18T12:20:08.486Z,9.10
2023-04-18T12:22:47.508Z,9.10
2023-04-18T12:25:27.719Z,9.00
2023-04-18T12:28:01.370Z,8.50
2023-04-18T12:30:30.030Z,9.00
2023-04-18T12:32:58.763Z,9.80
2023-04-18T12:35:27.338Z,10.40
2023-04-18T12:37:56.303Z,9.00
2023-04-18T12:40:26.361Z,8.40
2023-04-18T12:42:55.179Z,8.80
2023-04-18T12:45:25.024Z,8.60
2023-04-18T12:47:53.778Z,8.50
2023-04-18T12:50:23.276Z,8.80
2023-04-18T12:52:52.224Z,9.50
2023-04-18T12:55:20.655Z,9.30
2023-04-18T12:57:49.008Z,9.40
2023-04-18T13:00:17.290Z,9.40
2023-04-18T13:02:47.248Z,9.70
2023-04-18T13:05:18.196Z,9.10
2023-04-18T13:07:48.316Z,8.80
2023-04-18T13:10:17.711Z,9.00
2023-04-18T13:12:48.717Z,9.30
2023-04-18T13:15:17.603Z,9.30
2023-04-18T13:17:47.808Z,9.50
2023-04-18T13:20:16.564Z,9.30
2023-04-18T13:22:44.946Z,8.30
2023-04-18T13:25:13.408Z,8.50
2023-04-18T13:27:42.538Z,9.00
2023-04-18T13:30:11.917Z,9.40
2023-04-18T13:32:42.141Z,9.10
2023-04-18T13:35:13.063Z,8.90
2023-04-18T13:37:41.451Z,9.30
2023-04-18T13:40:10.174Z,9.40
2023-04-18T13:42:38.946Z,8.80
2023-04-18T13:45:07.694Z,9.00
2023-04-18T13:47:36.752Z,8.80
2023-04-18T13:50:05.704Z,9.30
2023-04-18T13:52:35.377Z,9.60
2023-04-18T13:55:03.874Z,8.80
2023-04-18T13:57:33.709Z,8.80
2023-04-18T14:00:02.477Z,8.90
2023-04-18T14:02:33.540Z,9.60
2023-04-18T14:05:02.063Z,9.80
2023-04-18T14:07:30.489Z,9.70
2023-04-18T14:10:01.963Z,9.50
2023-04-18T14:12:30.307Z,8.80
2023-04-18T14:15:04.800Z,9.50
2023-04-18T14:17:33.006Z,9.70
2023-04-18T14:20:01.640Z,9.10
2023-04-18T14:22:29.820Z,9.40
2023-04-18T14:24:59.651Z,9.30
2023-04-18T14:27:28.036Z,8.90
2023-04-18T14:29:56.237Z,9.00
2023-04-18T14:32:27.303Z,8.90
2023-04-18T14:34:55.532Z,8.90
2023-04-18T14:37:23.871Z,8.30
2023-04-18T14:39:51.955Z,8.20
2023-04-18T14:42:21.972Z,8.40
2023-04-18T14:44:50.258Z,8.60
2023-04-18T14:47:18.557Z,8.70
2023-04-18T14:49:46.710Z,8.30
2023-04-18T14:52:14.858Z,8.20
2023-04-18T14:54:44.063Z,8.20
2023-04-18T14:57:13.110Z,8.60
2023-04-18T14:59:42.648Z,8.50
2023-04-18T15:02:11.315Z,8.40
2023-04-18T15:04:39.653Z,8.00
2023-04-18T15:07:08.094Z,7.70
2023-04-18T15:09:37.241Z,8.40
2023-04-18T15:12:05.846Z,8.70
2023-04-18T15:14:34.035Z,7.80
2023-04-18T15:17:04.770Z,7.90
2023-04-18T15:19:33.027Z,8.10
2023-04-18T15:22:01.258Z,8.40
2023-04-18T15:24:29.576Z,7.90
2023-04-18T15:26:58.839Z,7.90
2023-04-18T15:29:27.325Z,7.90
2023-04-18T15:31:55.508Z,8.10
2023-04-18T15:34:25.060Z,7.70
2023-04-18T15:36:53.347Z,7.70
2023-04-18T15:39:23.645Z,7.30
2023-04-18T15:41:53.390Z,6.90
2023-04-18T15:44:21.758Z,7.60
2023-04-18T15:46:50.201Z,7.70
2023-04-18T15:49:18.373Z,8.00
2023-04-18T15:51:48.071Z,8.20
2023-04-18T15:54:18.526Z,7.80
2023-04-18T15:56:46.711Z,8.30
2023-04-18T15:59:15.028Z,8.10
2023-04-18T16:01:45.695Z,8.10
2023-04-18T16:04:14.683Z,8.00
2023-04-18T16:06:43.420Z,8.30
2023-04-18T16:09:13.232Z,7.50
2023-04-18T16:11:41.400Z,7.50
2023-04-18T16:14:09.687Z,7.20
2023-04-18T16:16:37.944Z,8.00
2023-04-18T16:19:06.365Z,7.90
2023-04-18T16:21:34.492Z,7.80
2023-04-18T16:24:02.887Z,7.80
2023-04-18T16:26:32.637Z,7.40
2023-04-18T16:29:00.755Z,7.70
2023-04-18T16:31:28.957Z,7.10
2023-04-18T16:33:57.212Z,7.80
2023-04-18T16:36:26.543Z,7.50
2023-04-18T16:38:54.948Z,7.80
2023-04-18T16:41:26.150Z,7.20
2023-04-18T16:43:55.817Z,7.00
2023-04-18T16:46:24.533Z,6.70
2023-04-18T16:48:52.770Z,7.60
2023-04-18T16:51:21.128Z,7.10
2023-04-18T16:53:49.395Z,7.00
2023-04-18T16:56:17.493Z,7.00
2023-04-18T16:58:45.605Z,7.30
2023-04-18T17:01:15.316Z,7.40
2023-04-18T17:03:43.709Z,7.30
2023-04-18T17:06:12.206Z,7.50
2023-04-18T17:08:40.347Z,7.20
2023-04-18T17:11:08.662Z,7.40
2023-04-18T17:13:37.368Z,6.10
2023-04-18T17:16:08.220Z,6.70
2023-04-18T17:18:37.865Z,6.40
2023-04-18T17:21:06.250Z,6.30
2023-04-18T17:23:34.429Z,6.70
2023-04-18T17:26:02.727Z,6.60
2023-04-18T17:28:31.046Z,6.90
2023-04-18T17:30:59.226Z,6.40
2023-04-18T17:33:27.749Z,6.40
2023-04-18T17:35:57.555Z,5.90
2023-04-18T17:38:25.838Z,6.20
2023-04-18T17:41:00.816Z,6.40
2023-04-18T17:43:30.470Z,6.00
2023-04-18T17:46:00.572Z,5.60
2023-04-18T17:48:28.971Z,5.80
2023-04-18T17:50:58.530Z,5.60
2023-04-18T17:53:26.974Z,5.80
2023-04-18T17:55:59.033Z,5.50
2023-04-18T17:58:27.782Z,5.60
2023-04-18T18:00:55.922Z,5.50
2023-04-18T18:03:24.424Z,5.40
2023-04-18T18:05:54.973Z,5.40
2023-04-18T18:08:25.075Z,5.50
2023-04-18T18:10:53.303Z,5.40
2023-04-18T18:13:21.426Z,5.10
2023-04-18T18:15:49.569Z,5.10
2023-04-18T18:18:17.645Z,4.80
2023-04-18T18:20:45.981Z,4.80
2023-04-18T18:23:14.066Z,5.00
2023-04-18T18:25:43.740Z,4.80
2023-04-18T18:28:12.073Z,4.90
2023-04-18T18:30:40.240Z,5.00
2023-04-18T18:33:08.600Z,4.80
2023-04-18T18:35:36.782Z,5.00
2023-04-18T18:38:05.131Z,4.70
2023-04-18T18:40:33.528Z,4.90
2023-04-18T18:43:03.258Z,4.70
2023-04-18T18:45:31.478Z,4.70
2023-04-18T18:47:59.974Z,4.80
2023-04-18T18:50:29.267Z,4.70
2023-04-18T18:52:57.396Z,4.70
2023-04-18T18:55:25.720Z,4.80
2023-04-18T18:57:53.815Z,4.60
2023-04-18T19:00:23.743Z,4.60
2023-04-18T19:02:52.353Z,4.50
2023-04-18T19:05:21.287Z,4.50
2023-04-18T19:07:51.661Z,4.50
2023-04-18T19:10:19.914Z,4.50
2023-04-18T19:12:48.247Z,4.50
2023-04-18T19:15:16.603Z,4.50
2023-04-18T19:17:48.031Z,4.60
2023-04-18T19:20:16.224Z,4.60
2023-04-18T19:22:46.487Z,4.60
2023-04-18T19:25:14.566Z,4.50
2023-04-18T19:27:43.461Z,4.30
2023-04-18T19:30:12.093Z,4.50
2023-04-18T19:32:40.368Z,4.20
2023-04-18T19:35:13.282Z,4.30
2023-04-18T19:37:41.503Z,4.30
2023-04-18T19:40:10.337Z,4.30
2023-04-18T19:42:38.692Z,4.30
2023-04-18T19:45:07.438Z,4.10
2023-04-18T19:47:35.578Z,4.10
2023-04-18T19:50:03.747Z,4.00
2023-04-18T19:52:33.482Z,4.00
2023-04-18T19:55:01.887Z,4.00
2023-04-18T19:57:30.111Z,4.20
2023-04-18T19:59:58.335Z,4.10
2023-04-18T20:02:29.554Z,3.80
2023-04-18T20:04:58.018Z,4.00
2023-04-18T20:07:26.843Z,3.80
2023-04-18T20:09:56.484Z,3.90
2023-04-18T20:12:24.942Z,3.80
2023-04-18T20:14:53.193Z,4.00
2023-04-18T20:17:24.048Z,4.10
2023-04-18T20:19:57.148Z,4.00
2023-04-18T20:22:26.819Z,3.90
2023-04-18T20:24:57.401Z,3.70
2023-04-18T20:27:25.516Z,3.80
2023-04-18T20:29:54.912Z,3.80
2023-04-18T20:32:25.084Z,3.70
2023-04-18T20:34:53.642Z,3.80
2023-04-18T20:37:21.796Z,4.00
2023-04-18T20:39:50.165Z,4.00
2023-04-18T20:42:19.904Z,3.90
2023-04-18T20:44:48.043Z,3.80
2023-04-18T20:47:16.340Z,3.70
2023-04-18T20:49:44.599Z,3.60
2023-04-18T20:52:14.829Z,3.70
2023-04-18T20:54:42.931Z,3.70
2023-04-18T20:57:11.158Z,3.70
2023-04-18T20:59:40.787Z,3.60
2023-04-18T21:02:09.582Z,3.70
2023-04-18T21:04:38.133Z,3.70
2023-04-18T21:07:06.326Z,3.70
2023-04-18T21:09:36.806Z,3.70
2023-04-18T21:12:05.428Z,3.70
2023-04-18T21:14:40.284Z,3.60
2023-04-18T21:17:10.871Z,3.60
2023-04-18T21:19:39.126Z,3.60
2023-04-18T21:22:07.300Z,3.70
2023-04-18T21:24:35.420Z,3.60
2023-04-18T21:27:04.271Z,3.70
2023-04-18T21:29:32.508Z,3.70
2023-04-18T21:32:00.686Z,3.70
2023-04-18T21:34:30.251Z,3.70
2023-04-18T21:36:59.667Z,3.80
2023-04-18T21:39:31.017Z,3.80
2023-04-18T21:41:59.313Z,3.70
2023-04-18T21:44:27.426Z,3.80
2023-04-18T21:46:55.628Z,3.80
2023-04-18T21:49:24.015Z,3.80
2023-04-18T21:51:55.034Z,3.80
2023-04-18T21:54:23.222Z,3.80
2023-04-18T21:56:51.392Z,3.80
2023-04-18T21:59:19.739Z,3.80
2023-04-18T22:01:47.816Z,3.90
2023-04-18T22:04:16.508Z,3.90
2023-04-18T22:06:44.889Z,3.80
2023-04-18T22:09:16.228Z,3.80
2023-04-18T22:11:44.331Z,3.90
2023-04-18T22:14:14.838Z,3.90
2023-04-18T22:16:45.160Z,3.80
2023-04-18T22:19:13.778Z,3.90
2023-04-18T22:21:42.005Z,4.00
2023-04-18T22:24:10.513Z,4.10
2023-04-18T22:26:41.094Z,4.10
2023-04-18T22:29:09.214Z,4.10
2023-04-18T22:31:37.316Z,4.00
2023-04-18T22:34:05.856Z,4.00
2023-04-18T22:36:34.157Z,3.90
2023-04-18T22:39:02.275Z,3.90
2023-04-18T22:41:32.597Z,3.90
2023-04-18T22:44:02.103Z,3.90
2023-04-18T22:46:30.498Z,3.80
2023-04-18T22:48:58.793Z,3.80
2023-04-18T22:51:28.777Z,3.70
2023-04-18T22:53:57.215Z,3.80
2023-04-18T22:56:25.373Z,3.80
2023-04-18T22:58:53.671Z,3.80
2023-04-18T23:01:23.305Z,3.70
2023-04-18T23:03:51.598Z,3.70
2023-04-18T23:06:19.959Z,3.60
2023-04-18T23:08:48.101Z,3.70
2023-04-18T23:11:17.070Z,3.70
2023-04-18T23:13:45.193Z,3.70
2023-04-18T23:16:13.459Z,3.70
2023-04-18T23:18:43.195Z,3.70
2023-04-18T23:21:11.403Z,3.80
2023-04-18T23:23:39.552Z,3.70
2023-04-18T23:26:15.477Z,3.70
2023-04-18T23:28:43.840Z,3.60
2023-04-18T23:31:12.259Z,3.60
2023-04-18T23:33:40.457Z,3.60
2023-04-18T23:36:11.834Z,3.60
2023-04-18T23:38:40.114Z,3.60
2023-04-18T23:41:08.387Z,3.60
2023-04-18T23:43:36.650Z,3.50
2023-04-18T23:46:05.085Z,3.40
2023-04-18T23:48:33.570Z,3.50
2023-04-18T23:51:04.472Z,3.50
2023-04-18T23:53:34.013Z,3.50
2023-04-18T23:56:02.161Z,3.50
2023-04-18T23:58:31.872Z,3.50
